sensor_id;sensor_type;location;lat;lon;timestamp;P1;durP1;ratioP1;P2;durP2;ratioP2
34565;SDS011;20803;42.676;26.348;2023-08-20T00:02:17;7.83;;;6.90;;
34565;SDS011;20803;42.676;26.348;2023-08-20T00:04:44;7.67;;;6.97;;
34565;SDS011;20803;42.676;26.348;2023-08-20T00:07:11;8.87;;;7.93;;
34565;SDS011;20803;42.676;26.348;2023-08-20T00:09:37;8.43;;;7.47;;
34565;SDS011;20803;42.676;26.348;2023-08-20T00:12:03;8.03;;;7.33;;
34565;SDS011;20803;42.676;26.348;2023-08-20T00:17:19;11.10;;;9.87;;
34565;SDS011;20803;42.676;26.348;2023-08-20T00:19:45;14.13;;;12.73;;
34565;SDS011;20803;42.676;26.348;2023-08-20T00:22:11;9.87;;;8.83;;
34565;SDS011;20803;42.676;26.348;2023-08-20T00:24:37;7.67;;;6.97;;
34565;SDS011;20803;42.676;26.348;2023-08-20T00:27:05;8.07;;;7.20;;
34565;SDS011;20803;42.676;26.348;2023-08-20T00:29:30;10.67;;;9.67;;
34565;SDS011;20803;42.676;26.348;2023-08-20T00:31:56;9.23;;;8.33;;
34565;SDS011;20803;42.676;26.348;2023-08-20T00:34:21;8.93;;;7.20;;
34565;SDS011;20803;42.676;26.348;2023-08-20T00:36:46;11.37;;;7.00;;
34565;SDS011;20803;42.676;26.348;2023-08-20T00:39:12;8.23;;;7.30;;
34565;SDS011;20803;42.676;26.348;2023-08-20T00:41:37;8.40;;;7.13;;
34565;SDS011;20803;42.676;26.348;2023-08-20T00:44:03;7.57;;;6.77;;
34565;SDS011;20803;42.676;26.348;2023-08-20T00:46:28;9.77;;;7.53;;
34565;SDS011;20803;42.676;26.348;2023-08-20T00:48:54;9.47;;;7.23;;
34565;SDS011;20803;42.676;26.348;2023-08-20T00:51:21;8.47;;;7.77;;
34565;SDS011;20803;42.676;26.348;2023-08-20T00:53:48;8.90;;;7.73;;
34565;SDS011;20803;42.676;26.348;2023-08-20T00:56:14;8.30;;;7.50;;
34565;SDS011;20803;42.676;26.348;2023-08-20T00:58:40;7.87;;;7.03;;
34565;SDS011;20803;42.676;26.348;2023-08-20T01:01:06;7.90;;;7.10;;
34565;SDS011;20803;42.676;26.348;2023-08-20T01:03:32;8.80;;;6.97;;
34565;SDS011;20803;42.676;26.348;2023-08-20T01:06:04;6.83;;;6.20;;
34565;SDS011;20803;42.676;26.348;2023-08-20T01:09:01;10.10;;;7.50;;
34565;SDS011;20803;42.676;26.348;2023-08-20T01:11:52;9.90;;;7.30;;
34565;SDS011;20803;42.676;26.348;2023-08-20T01:14:22;7.70;;;6.90;;
34565;SDS011;20803;42.676;26.348;2023-08-20T01:16:48;9.80;;;7.27;;
34565;SDS011;20803;42.676;26.348;2023-08-20T01:19:16;9.37;;;7.40;;
34565;SDS011;20803;42.676;26.348;2023-08-20T01:24:23;8.23;;;7.37;;
34565;SDS011;20803;42.676;26.348;2023-08-20T01:29:54;9.40;;;7.43;;
34565;SDS011;20803;42.676;26.348;2023-08-20T01:32:20;8.00;;;7.17;;
34565;SDS011;20803;42.676;26.348;2023-08-20T01:34:49;10.53;;;7.47;;
34565;SDS011;20803;42.676;26.348;2023-08-20T01:37:14;7.90;;;7.20;;
34565;SDS011;20803;42.676;26.348;2023-08-20T01:39:39;7.83;;;7.13;;
34565;SDS011;20803;42.676;26.348;2023-08-20T01:42:05;8.30;;;7.50;;
34565;SDS011;20803;42.676;26.348;2023-08-20T01:44:31;7.63;;;6.90;;
34565;SDS011;20803;42.676;26.348;2023-08-20T01:46:56;8.63;;;7.63;;
34565;SDS011;20803;42.676;26.348;2023-08-20T01:49:22;12.10;;;7.83;;
34565;SDS011;20803;42.676;26.348;2023-08-20T01:51:48;10.23;;;7.40;;
34565;SDS011;20803;42.676;26.348;2023-08-20T01:54:13;11.53;;;7.27;;
34565;SDS011;20803;42.676;26.348;2023-08-20T01:56:39;10.37;;;7.57;;
34565;SDS011;20803;42.676;26.348;2023-08-20T01:59:05;9.70;;;7.97;;
34565;SDS011;20803;42.676;26.348;2023-08-20T02:01:30;8.47;;;7.57;;
34565;SDS011;20803;42.676;26.348;2023-08-20T02:03:55;8.10;;;7.30;;
34565;SDS011;20803;42.676;26.348;2023-08-20T02:06:21;7.67;;;6.87;;
34565;SDS011;20803;42.676;26.348;2023-08-20T02:08:46;8.93;;;7.43;;
34565;SDS011;20803;42.676;26.348;2023-08-20T02:11:12;9.40;;;7.60;;
34565;SDS011;20803;42.676;26.348;2023-08-20T02:13:37;7.43;;;6.73;;
34565;SDS011;20803;42.676;26.348;2023-08-20T02:16:04;9.37;;;7.00;;
34565;SDS011;20803;42.676;26.348;2023-08-20T02:18:30;7.53;;;6.73;;
34565;SDS011;20803;42.676;26.348;2023-08-20T02:20:56;8.57;;;7.07;;
34565;SDS011;20803;42.676;26.348;2023-08-20T02:23:22;7.63;;;6.80;;
34565;SDS011;20803;42.676;26.348;2023-08-20T02:25:48;8.30;;;7.37;;
34565;SDS011;20803;42.676;26.348;2023-08-20T02:28:13;8.23;;;7.50;;
34565;SDS011;20803;42.676;26.348;2023-08-20T02:30:43;9.00;;;7.60;;
34565;SDS011;20803;42.676;26.348;2023-08-20T02:33:11;9.23;;;7.13;;
34565;SDS011;20803;42.676;26.348;2023-08-20T02:35:37;8.63;;;7.40;;
34565;SDS011;20803;42.676;26.348;2023-08-20T02:38:03;9.53;;;7.53;;
34565;SDS011;20803;42.676;26.348;2023-08-20T02:40:30;8.03;;;7.23;;
34565;SDS011;20803;42.676;26.348;2023-08-20T02:42:55;8.70;;;7.30;;
34565;SDS011;20803;42.676;26.348;2023-08-20T02:45:20;8.97;;;7.00;;
34565;SDS011;20803;42.676;26.348;2023-08-20T02:47:46;8.67;;;7.50;;
34565;SDS011;20803;42.676;26.348;2023-08-20T02:50:11;8.40;;;7.60;;
34565;SDS011;20803;42.676;26.348;2023-08-20T02:52:37;9.20;;;7.30;;
34565;SDS011;20803;42.676;26.348;2023-08-20T02:55:02;18.77;;;7.70;;
34565;SDS011;20803;42.676;26.348;2023-08-20T02:57:29;9.00;;;6.97;;
34565;SDS011;20803;42.676;26.348;2023-08-20T02:59:56;7.87;;;7.07;;
34565;SDS011;20803;42.676;26.348;2023-08-20T03:02:22;9.03;;;6.77;;
34565;SDS011;20803;42.676;26.348;2023-08-20T03:04:47;8.87;;;7.93;;
34565;SDS011;20803;42.676;26.348;2023-08-20T03:07:13;7.37;;;6.67;;
34565;SDS011;20803;42.676;26.348;2023-08-20T03:09:38;8.53;;;7.63;;
34565;SDS011;20803;42.676;26.348;2023-08-20T03:12:03;9.20;;;6.93;;
34565;SDS011;20803;42.676;26.348;2023-08-20T03:14:29;9.77;;;7.67;;
34565;SDS011;20803;42.676;26.348;2023-08-20T03:16:55;10.00;;;6.90;;
34565;SDS011;20803;42.676;26.348;2023-08-20T03:19:20;8.97;;;7.50;;
34565;SDS011;20803;42.676;26.348;2023-08-20T03:21:45;10.93;;;7.17;;
34565;SDS011;20803;42.676;26.348;2023-08-20T03:24:11;10.03;;;7.20;;
34565;SDS011;20803;42.676;26.348;2023-08-20T03:26:36;9.30;;;7.00;;
34565;SDS011;20803;42.676;26.348;2023-08-20T03:29:01;8.03;;;6.57;;
34565;SDS011;20803;42.676;26.348;2023-08-20T03:31:28;10.37;;;7.60;;
34565;SDS011;20803;42.676;26.348;2023-08-20T03:33:56;8.63;;;6.97;;
34565;SDS011;20803;42.676;26.348;2023-08-20T03:36:22;9.73;;;7.03;;
34565;SDS011;20803;42.676;26.348;2023-08-20T03:38:47;7.70;;;6.77;;
34565;SDS011;20803;42.676;26.348;2023-08-20T03:41:13;8.33;;;7.13;;
34565;SDS011;20803;42.676;26.348;2023-08-20T03:43:38;8.47;;;7.63;;
34565;SDS011;20803;42.676;26.348;2023-08-20T03:46:03;7.50;;;6.70;;
34565;SDS011;20803;42.676;26.348;2023-08-20T03:48:29;9.10;;;6.67;;
34565;SDS011;20803;42.676;26.348;2023-08-20T03:50:54;9.13;;;7.30;;
34565;SDS011;20803;42.676;26.348;2023-08-20T03:53:21;8.23;;;7.03;;
34565;SDS011;20803;42.676;26.348;2023-08-20T03:55:49;7.87;;;7.17;;
34565;SDS011;20803;42.676;26.348;2023-08-20T03:58:16;12.90;;;7.50;;
34565;SDS011;20803;42.676;26.348;2023-08-20T04:00:41;8.57;;;7.63;;
34565;SDS011;20803;42.676;26.348;2023-08-20T04:03:07;8.67;;;6.83;;
34565;SDS011;20803;42.676;26.348;2023-08-20T04:05:36;7.93;;;7.17;;
34565;SDS011;20803;42.676;26.348;2023-08-20T04:08:02;8.53;;;7.07;;
34565;SDS011;20803;42.676;26.348;2023-08-20T04:10:29;8.87;;;6.87;;
34565;SDS011;20803;42.676;26.348;2023-08-20T04:12:54;7.90;;;6.83;;
34565;SDS011;20803;42.676;26.348;2023-08-20T04:15:19;9.53;;;7.13;;
34565;SDS011;20803;42.676;26.348;2023-08-20T04:17:45;10.93;;;7.03;;
34565;SDS011;20803;42.676;26.348;2023-08-20T04:20:11;9.13;;;6.83;;
34565;SDS011;20803;42.676;26.348;2023-08-20T04:22:36;10.77;;;6.83;;
34565;SDS011;20803;42.676;26.348;2023-08-20T04:25:02;12.37;;;7.40;;
34565;SDS011;20803;42.676;26.348;2023-08-20T04:27:28;8.03;;;7.10;;
34565;SDS011;20803;42.676;26.348;2023-08-20T04:29:53;10.63;;;7.40;;
34565;SDS011;20803;42.676;26.348;2023-08-20T04:32:19;8.80;;;6.53;;
34565;SDS011;20803;42.676;26.348;2023-08-20T04:34:45;11.00;;;7.03;;
34565;SDS011;20803;42.676;26.348;2023-08-20T04:37:11;10.33;;;7.30;;
34565;SDS011;20803;42.676;26.348;2023-08-20T04:39:36;7.50;;;6.80;;
34565;SDS011;20803;42.676;26.348;2023-08-20T04:42:02;8.07;;;6.87;;
34565;SDS011;20803;42.676;26.348;2023-08-20T04:44:27;13.63;;;6.53;;
34565;SDS011;20803;42.676;26.348;2023-08-20T04:46:53;9.20;;;6.70;;
34565;SDS011;20803;42.676;26.348;2023-08-20T04:49:18;7.40;;;6.47;;
34565;SDS011;20803;42.676;26.348;2023-08-20T04:51:43;8.23;;;6.23;;
34565;SDS011;20803;42.676;26.348;2023-08-20T04:54:09;7.50;;;6.80;;
34565;SDS011;20803;42.676;26.348;2023-08-20T04:56:34;9.07;;;6.93;;
34565;SDS011;20803;42.676;26.348;2023-08-20T04:59:00;9.37;;;6.47;;
34565;SDS011;20803;42.676;26.348;2023-08-20T05:01:25;6.33;;;5.30;;
34565;SDS011;20803;42.676;26.348;2023-08-20T05:03:50;7.77;;;6.60;;
34565;SDS011;20803;42.676;26.348;2023-08-20T05:06:16;8.73;;;6.90;;
34565;SDS011;20803;42.676;26.348;2023-08-20T05:08:42;6.93;;;5.97;;
34565;SDS011;20803;42.676;26.348;2023-08-20T05:11:08;8.23;;;6.00;;
34565;SDS011;20803;42.676;26.348;2023-08-20T05:13:33;7.03;;;6.43;;
34565;SDS011;20803;42.676;26.348;2023-08-20T05:15:59;7.93;;;6.27;;
34565;SDS011;20803;42.676;26.348;2023-08-20T05:18:24;6.57;;;5.97;;
34565;SDS011;20803;42.676;26.348;2023-08-20T05:20:51;9.00;;;5.93;;
34565;SDS011;20803;42.676;26.348;2023-08-20T05:23:17;8.57;;;6.27;;
34565;SDS011;20803;42.676;26.348;2023-08-20T05:25:42;9.43;;;6.03;;
34565;SDS011;20803;42.676;26.348;2023-08-20T05:28:08;6.17;;;5.37;;
34565;SDS011;20803;42.676;26.348;2023-08-20T05:30:33;6.43;;;5.83;;
34565;SDS011;20803;42.676;26.348;2023-08-20T05:32:59;7.57;;;5.93;;
34565;SDS011;20803;42.676;26.348;2023-08-20T05:35:24;9.87;;;6.87;;
34565;SDS011;20803;42.676;26.348;2023-08-20T05:37:50;9.73;;;6.20;;
34565;SDS011;20803;42.676;26.348;2023-08-20T05:40:15;8.50;;;6.57;;
34565;SDS011;20803;42.676;26.348;2023-08-20T05:42:41;6.83;;;6.13;;
34565;SDS011;20803;42.676;26.348;2023-08-20T05:45:06;7.03;;;5.70;;
34565;SDS011;20803;42.676;26.348;2023-08-20T05:47:32;10.93;;;6.90;;
34565;SDS011;20803;42.676;26.348;2023-08-20T05:49:57;9.83;;;6.03;;
34565;SDS011;20803;42.676;26.348;2023-08-20T05:52:23;7.00;;;5.53;;
34565;SDS011;20803;42.676;26.348;2023-08-20T05:54:48;10.43;;;7.53;;
34565;SDS011;20803;42.676;26.348;2023-08-20T05:57:14;7.83;;;6.50;;
34565;SDS011;20803;42.676;26.348;2023-08-20T05:59:39;9.40;;;6.50;;
34565;SDS011;20803;42.676;26.348;2023-08-20T06:02:05;9.27;;;7.03;;
34565;SDS011;20803;42.676;26.348;2023-08-20T06:04:30;10.30;;;6.60;;
34565;SDS011;20803;42.676;26.348;2023-08-20T06:06:56;6.37;;;5.40;;
34565;SDS011;20803;42.676;26.348;2023-08-20T06:09:21;7.87;;;6.87;;
34565;SDS011;20803;42.676;26.348;2023-08-20T06:11:47;7.83;;;5.73;;
34565;SDS011;20803;42.676;26.348;2023-08-20T06:14:13;7.37;;;5.97;;
34565;SDS011;20803;42.676;26.348;2023-08-20T06:16:38;7.40;;;5.10;;
34565;SDS011;20803;42.676;26.348;2023-08-20T06:19:04;4.87;;;4.47;;
34565;SDS011;20803;42.676;26.348;2023-08-20T06:21:29;7.90;;;4.90;;
34565;SDS011;20803;42.676;26.348;2023-08-20T06:23:55;10.03;;;4.73;;
34565;SDS011;20803;42.676;26.348;2023-08-20T06:26:20;6.53;;;5.07;;
34565;SDS011;20803;42.676;26.348;2023-08-20T06:28:46;5.40;;;4.73;;
34565;SDS011;20803;42.676;26.348;2023-08-20T06:31:11;6.27;;;4.87;;
34565;SDS011;20803;42.676;26.348;2023-08-20T06:33:36;4.53;;;4.03;;
34565;SDS011;20803;42.676;26.348;2023-08-20T06:36:03;8.30;;;4.90;;
34565;SDS011;20803;42.676;26.348;2023-08-20T06:38:29;8.47;;;5.17;;
34565;SDS011;20803;42.676;26.348;2023-08-20T06:40:54;7.03;;;4.70;;
34565;SDS011;20803;42.676;26.348;2023-08-20T06:43:20;7.30;;;4.80;;
34565;SDS011;20803;42.676;26.348;2023-08-20T06:45:46;7.03;;;5.00;;
34565;SDS011;20803;42.676;26.348;2023-08-20T06:48:11;7.67;;;5.20;;
34565;SDS011;20803;42.676;26.348;2023-08-20T06:50:37;5.47;;;4.67;;
34565;SDS011;20803;42.676;26.348;2023-08-20T06:53:02;6.70;;;5.80;;
34565;SDS011;20803;42.676;26.348;2023-08-20T06:55:27;9.17;;;5.30;;
34565;SDS011;20803;42.676;26.348;2023-08-20T06:57:53;7.60;;;5.03;;
34565;SDS011;20803;42.676;26.348;2023-08-20T07:00:18;6.80;;;5.23;;
34565;SDS011;20803;42.676;26.348;2023-08-20T07:02:44;5.87;;;5.27;;
34565;SDS011;20803;42.676;26.348;2023-08-20T07:05:10;7.80;;;5.73;;
34565;SDS011;20803;42.676;26.348;2023-08-20T07:07:35;6.10;;;4.80;;
34565;SDS011;20803;42.676;26.348;2023-08-20T07:10:01;5.10;;;4.63;;
34565;SDS011;20803;42.676;26.348;2023-08-20T07:12:28;7.10;;;5.43;;
34565;SDS011;20803;42.676;26.348;2023-08-20T07:14:54;6.00;;;5.30;;
34565;SDS011;20803;42.676;26.348;2023-08-20T07:17:19;6.77;;;5.17;;
34565;SDS011;20803;42.676;26.348;2023-08-20T07:19:44;6.50;;;5.00;;
34565;SDS011;20803;42.676;26.348;2023-08-20T07:22:10;8.13;;;5.17;;
34565;SDS011;20803;42.676;26.348;2023-08-20T07:24:35;6.13;;;5.20;;
34565;SDS011;20803;42.676;26.348;2023-08-20T07:27:01;6.13;;;5.33;;
34565;SDS011;20803;42.676;26.348;2023-08-20T07:29:29;7.07;;;5.47;;
34565;SDS011;20803;42.676;26.348;2023-08-20T07:31:55;6.40;;;5.70;;
34565;SDS011;20803;42.676;26.348;2023-08-20T07:34:21;6.50;;;5.80;;
34565;SDS011;20803;42.676;26.348;2023-08-20T07:36:46;9.30;;;5.33;;
34565;SDS011;20803;42.676;26.348;2023-08-20T07:39:12;6.60;;;5.30;;
34565;SDS011;20803;42.676;26.348;2023-08-20T07:41:39;7.43;;;6.10;;
34565;SDS011;20803;42.676;26.348;2023-08-20T07:44:05;6.90;;;6.13;;
34565;SDS011;20803;42.676;26.348;2023-08-20T07:46:30;6.60;;;5.83;;
34565;SDS011;20803;42.676;26.348;2023-08-20T07:48:56;6.80;;;5.90;;
34565;SDS011;20803;42.676;26.348;2023-08-20T07:51:21;7.80;;;6.07;;
34565;SDS011;20803;42.676;26.348;2023-08-20T07:53:47;8.53;;;6.10;;
34565;SDS011;20803;42.676;26.348;2023-08-20T07:56:12;7.33;;;6.40;;
34565;SDS011;20803;42.676;26.348;2023-08-20T07:58:37;9.60;;;6.20;;
34565;SDS011;20803;42.676;26.348;2023-08-20T08:01:03;6.83;;;6.20;;
34565;SDS011;20803;42.676;26.348;2023-08-20T08:03:28;6.93;;;5.93;;
34565;SDS011;20803;42.676;26.348;2023-08-20T08:05:54;8.00;;;6.20;;
34565;SDS011;20803;42.676;26.348;2023-08-20T08:08:20;6.50;;;5.60;;
34565;SDS011;20803;42.676;26.348;2023-08-20T08:10:46;6.67;;;5.97;;
34565;SDS011;20803;42.676;26.348;2023-08-20T08:13:12;13.53;;;6.93;;
34565;SDS011;20803;42.676;26.348;2023-08-20T08:15:38;11.07;;;6.33;;
34565;SDS011;20803;42.676;26.348;2023-08-20T08:18:04;7.77;;;5.97;;
34565;SDS011;20803;42.676;26.348;2023-08-20T08:20:30;10.30;;;6.50;;
34565;SDS011;20803;42.676;26.348;2023-08-20T08:22:55;7.93;;;6.20;;
34565;SDS011;20803;42.676;26.348;2023-08-20T08:25:21;6.73;;;5.60;;
34565;SDS011;20803;42.676;26.348;2023-08-20T08:27:46;6.70;;;6.00;;
34565;SDS011;20803;42.676;26.348;2023-08-20T08:30:12;6.43;;;5.57;;
34565;SDS011;20803;42.676;26.348;2023-08-20T08:32:37;6.60;;;5.77;;
34565;SDS011;20803;42.676;26.348;2023-08-20T08:35:03;6.43;;;5.73;;
34565;SDS011;20803;42.676;26.348;2023-08-20T08:37:28;6.53;;;5.93;;
34565;SDS011;20803;42.676;26.348;2023-08-20T08:39:54;7.60;;;6.30;;
34565;SDS011;20803;42.676;26.348;2023-08-20T08:42:20;7.00;;;6.27;;
34565;SDS011;20803;42.676;26.348;2023-08-20T08:44:48;7.23;;;6.10;;
34565;SDS011;20803;42.676;26.348;2023-08-20T08:47:15;6.80;;;6.07;;
34565;SDS011;20803;42.676;26.348;2023-08-20T08:49:41;7.30;;;6.10;;
34565;SDS011;20803;42.676;26.348;2023-08-20T08:52:08;6.73;;;5.53;;
34565;SDS011;20803;42.676;26.348;2023-08-20T08:54:35;9.97;;;6.37;;
34565;SDS011;20803;42.676;26.348;2023-08-20T08:57:01;7.23;;;5.97;;
34565;SDS011;20803;42.676;26.348;2023-08-20T08:59:27;7.57;;;5.87;;
34565;SDS011;20803;42.676;26.348;2023-08-20T09:01:52;7.77;;;6.40;;
34565;SDS011;20803;42.676;26.348;2023-08-20T09:04:18;6.63;;;6.03;;
34565;SDS011;20803;42.676;26.348;2023-08-20T09:06:44;6.80;;;6.07;;
34565;SDS011;20803;42.676;26.348;2023-08-20T09:09:11;7.37;;;6.03;;
34565;SDS011;20803;42.676;26.348;2023-08-20T09:11:37;6.63;;;5.93;;
34565;SDS011;20803;42.676;26.348;2023-08-20T09:14:02;9.60;;;6.00;;
34565;SDS011;20803;42.676;26.348;2023-08-20T09:16:29;6.17;;;5.53;;
34565;SDS011;20803;42.676;26.348;2023-08-20T09:18:57;7.00;;;6.37;;
34565;SDS011;20803;42.676;26.348;2023-08-20T09:21:26;6.30;;;5.70;;
34565;SDS011;20803;42.676;26.348;2023-08-20T09:23:56;8.50;;;6.00;;
34565;SDS011;20803;42.676;26.348;2023-08-20T09:26:22;7.97;;;6.13;;
34565;SDS011;20803;42.676;26.348;2023-08-20T09:28:48;10.03;;;6.07;;
34565;SDS011;20803;42.676;26.348;2023-08-20T09:31:14;7.63;;;5.77;;
34565;SDS011;20803;42.676;26.348;2023-08-20T09:36:18;10.03;;;6.07;;
34565;SDS011;20803;42.676;26.348;2023-08-20T09:38:44;6.80;;;5.70;;
34565;SDS011;20803;42.676;26.348;2023-08-20T09:41:10;6.67;;;5.20;;
34565;SDS011;20803;42.676;26.348;2023-08-20T09:43:40;7.37;;;5.50;;
34565;SDS011;20803;42.676;26.348;2023-08-20T09:46:08;7.63;;;5.33;;
34565;SDS011;20803;42.676;26.348;2023-08-20T09:48:35;6.37;;;5.70;;
34565;SDS011;20803;42.676;26.348;2023-08-20T09:51:04;6.90;;;6.20;;
34565;SDS011;20803;42.676;26.348;2023-08-20T09:53:35;7.80;;;6.10;;
34565;SDS011;20803;42.676;26.348;2023-08-20T09:56:30;6.27;;;5.63;;
34565;SDS011;20803;42.676;26.348;2023-08-20T09:59:02;9.23;;;5.67;;
34565;SDS011;20803;42.676;26.348;2023-08-20T10:01:29;8.90;;;5.83;;
34565;SDS011;20803;42.676;26.348;2023-08-20T10:03:55;10.40;;;6.60;;
34565;SDS011;20803;42.676;26.348;2023-08-20T10:06:21;6.60;;;6.00;;
34565;SDS011;20803;42.676;26.348;2023-08-20T10:08:48;8.37;;;6.47;;
34565;SDS011;20803;42.676;26.348;2023-08-20T10:11:16;7.80;;;6.13;;
34565;SDS011;20803;42.676;26.348;2023-08-20T10:13:42;9.17;;;6.40;;
34565;SDS011;20803;42.676;26.348;2023-08-20T10:16:07;8.27;;;6.10;;
34565;SDS011;20803;42.676;26.348;2023-08-20T10:18:36;9.57;;;6.57;;
34565;SDS011;20803;42.676;26.348;2023-08-20T10:21:02;9.33;;;5.97;;
34565;SDS011;20803;42.676;26.348;2023-08-20T10:23:29;11.47;;;6.50;;
34565;SDS011;20803;42.676;26.348;2023-08-20T10:25:55;9.17;;;6.17;;
34565;SDS011;20803;42.676;26.348;2023-08-20T10:28:35;8.50;;;6.50;;
34565;SDS011;20803;42.676;26.348;2023-08-20T10:31:05;8.33;;;6.63;;
34565;SDS011;20803;42.676;26.348;2023-08-20T10:33:35;9.00;;;6.90;;
34565;SDS011;20803;42.676;26.348;2023-08-20T10:36:15;10.87;;;6.50;;
34565;SDS011;20803;42.676;26.348;2023-08-20T10:38:44;10.37;;;6.90;;
34565;SDS011;20803;42.676;26.348;2023-08-20T10:41:10;9.33;;;7.03;;
34565;SDS011;20803;42.676;26.348;2023-08-20T10:43:37;9.43;;;7.03;;
34565;SDS011;20803;42.676;26.348;2023-08-20T10:46:04;8.87;;;6.73;;
34565;SDS011;20803;42.676;26.348;2023-08-20T10:48:33;9.17;;;6.30;;
34565;SDS011;20803;42.676;26.348;2023-08-20T10:51:33;9.33;;;6.50;;
34565;SDS011;20803;42.676;26.348;2023-08-20T10:56:37;6.93;;;6.27;;
34565;SDS011;20803;42.676;26.348;2023-08-20T10:59:30;11.17;;;6.83;;
34565;SDS011;20803;42.676;26.348;2023-08-20T11:01:56;7.27;;;6.53;;
34565;SDS011;20803;42.676;26.348;2023-08-20T11:04:23;11.03;;;6.90;;
34565;SDS011;20803;42.676;26.348;2023-08-20T11:06:53;7.30;;;6.17;;
34565;SDS011;20803;42.676;26.348;2023-08-20T11:09:21;8.60;;;6.37;;
34565;SDS011;20803;42.676;26.348;2023-08-20T11:11:47;7.50;;;6.10;;
34565;SDS011;20803;42.676;26.348;2023-08-20T11:14:13;8.57;;;6.67;;
34565;SDS011;20803;42.676;26.348;2023-08-20T11:16:40;7.37;;;6.67;;
34565;SDS011;20803;42.676;26.348;2023-08-20T11:19:06;11.30;;;6.83;;
34565;SDS011;20803;42.676;26.348;2023-08-20T11:21:35;9.30;;;6.53;;
34565;SDS011;20803;42.676;26.348;2023-08-20T11:24:02;9.17;;;6.13;;
34565;SDS011;20803;42.676;26.348;2023-08-20T11:26:28;7.97;;;6.10;;
34565;SDS011;20803;42.676;26.348;2023-08-20T11:28:54;6.50;;;5.90;;
34565;SDS011;20803;42.676;26.348;2023-08-20T11:31:19;6.67;;;6.07;;
34565;SDS011;20803;42.676;26.348;2023-08-20T11:33:45;8.90;;;6.30;;
34565;SDS011;20803;42.676;26.348;2023-08-20T11:36:11;6.90;;;6.20;;
34565;SDS011;20803;42.676;26.348;2023-08-20T11:38:36;6.83;;;6.13;;
34565;SDS011;20803;42.676;26.348;2023-08-20T11:41:02;7.28;;;6.50;;
34565;SDS011;20803;42.676;26.348;2023-08-20T11:43:28;6.57;;;5.97;;
34565;SDS011;20803;42.676;26.348;2023-08-20T11:45:54;9.67;;;6.00;;
34565;SDS011;20803;42.676;26.348;2023-08-20T11:48:20;7.57;;;6.10;;
34565;SDS011;20803;42.676;26.348;2023-08-20T11:50:46;7.85;;;5.93;;
34565;SDS011;20803;42.676;26.348;2023-08-20T11:53:12;6.93;;;6.30;;
34565;SDS011;20803;42.676;26.348;2023-08-20T11:55:38;7.47;;;6.67;;
34565;SDS011;20803;42.676;26.348;2023-08-20T11:58:05;6.93;;;6.20;;
34565;SDS011;20803;42.676;26.348;2023-08-20T12:00:34;7.75;;;6.05;;
34565;SDS011;20803;42.676;26.348;2023-08-20T12:03:01;6.70;;;6.10;;
34565;SDS011;20803;42.676;26.348;2023-08-20T12:05:27;7.00;;;6.30;;
34565;SDS011;20803;42.676;26.348;2023-08-20T12:07:57;6.53;;;5.93;;
34565;SDS011;20803;42.676;26.348;2023-08-20T12:10:27;10.73;;;5.93;;
34565;SDS011;20803;42.676;26.348;2023-08-20T12:12:54;10.33;;;6.27;;
34565;SDS011;20803;42.676;26.348;2023-08-20T12:15:20;6.67;;;6.07;;
34565;SDS011;20803;42.676;26.348;2023-08-20T12:20:21;10.80;;;6.10;;
34565;SDS011;20803;42.676;26.348;2023-08-20T12:22:47;6.47;;;5.87;;
34565;SDS011;20803;42.676;26.348;2023-08-20T12:25:12;7.50;;;6.07;;
34565;SDS011;20803;42.676;26.348;2023-08-20T12:27:38;10.37;;;6.40;;
34565;SDS011;20803;42.676;26.348;2023-08-20T12:30:03;6.80;;;6.10;;
34565;SDS011;20803;42.676;26.348;2023-08-20T12:32:29;7.50;;;6.00;;
34565;SDS011;20803;42.676;26.348;2023-08-20T12:34:54;6.47;;;5.87;;
34565;SDS011;20803;42.676;26.348;2023-08-20T12:37:20;7.63;;;5.67;;
34565;SDS011;20803;42.676;26.348;2023-08-20T12:39:46;6.67;;;5.83;;
34565;SDS011;20803;42.676;26.348;2023-08-20T12:42:11;6.13;;;5.53;;
34565;SDS011;20803;42.676;26.348;2023-08-20T12:44:36;8.57;;;5.90;;
34565;SDS011;20803;42.676;26.348;2023-08-20T12:47:02;6.57;;;5.87;;
34565;SDS011;20803;42.676;26.348;2023-08-20T12:49:28;6.50;;;5.30;;
34565;SDS011;20803;42.676;26.348;2023-08-20T12:51:53;10.10;;;5.80;;
34565;SDS011;20803;42.676;26.348;2023-08-20T12:54:18;7.03;;;5.37;;
34565;SDS011;20803;42.676;26.348;2023-08-20T12:56:44;6.87;;;6.13;;
34565;SDS011;20803;42.676;26.348;2023-08-20T12:59:09;9.17;;;5.97;;
34565;SDS011;20803;42.676;26.348;2023-08-20T13:01:35;7.23;;;5.90;;
34565;SDS011;20803;42.676;26.348;2023-08-20T13:04:00;6.23;;;5.63;;
34565;SDS011;20803;42.676;26.348;2023-08-20T13:06:26;11.30;;;6.10;;
34565;SDS011;20803;42.676;26.348;2023-08-20T13:08:52;8.97;;;6.63;;
34565;SDS011;20803;42.676;26.348;2023-08-20T13:11:17;7.57;;;5.93;;
34565;SDS011;20803;42.676;26.348;2023-08-20T13:13:46;6.73;;;6.10;;
34565;SDS011;20803;42.676;26.348;2023-08-20T13:16:11;8.63;;;5.80;;
34565;SDS011;20803;42.676;26.348;2023-08-20T13:18:37;8.27;;;5.83;;
34565;SDS011;20803;42.676;26.348;2023-08-20T13:21:03;6.50;;;5.80;;
34565;SDS011;20803;42.676;26.348;2023-08-20T13:23:29;6.33;;;5.43;;
34565;SDS011;20803;42.676;26.348;2023-08-20T13:25:54;5.93;;;5.07;;
34565;SDS011;20803;42.676;26.348;2023-08-20T13:28:20;6.00;;;5.50;;
34565;SDS011;20803;42.676;26.348;2023-08-20T13:30:45;6.47;;;5.60;;
34565;SDS011;20803;42.676;26.348;2023-08-20T13:33:12;10.23;;;6.20;;
34565;SDS011;20803;42.676;26.348;2023-08-20T13:35:40;6.87;;;6.17;;
34565;SDS011;20803;42.676;26.348;2023-08-20T13:38:06;9.07;;;5.87;;
34565;SDS011;20803;42.676;26.348;2023-08-20T13:40:32;7.23;;;6.50;;
34565;SDS011;20803;42.676;26.348;2023-08-20T13:42:57;6.60;;;5.33;;
34565;SDS011;20803;42.676;26.348;2023-08-20T13:45:23;6.97;;;6.27;;
34565;SDS011;20803;42.676;26.348;2023-08-20T13:47:48;7.37;;;5.83;;
34565;SDS011;20803;42.676;26.348;2023-08-20T13:50:13;6.07;;;5.47;;
34565;SDS011;20803;42.676;26.348;2023-08-20T13:52:39;9.60;;;5.57;;
34565;SDS011;20803;42.676;26.348;2023-08-20T13:55:04;8.77;;;5.30;;
34565;SDS011;20803;42.676;26.348;2023-08-20T13:57:30;8.20;;;5.70;;
34565;SDS011;20803;42.676;26.348;2023-08-20T13:59:56;6.17;;;5.57;;
34565;SDS011;20803;42.676;26.348;2023-08-20T14:02:21;8.27;;;5.90;;
34565;SDS011;20803;42.676;26.348;2023-08-20T14:04:46;6.53;;;5.93;;
34565;SDS011;20803;42.676;26.348;2023-08-20T14:07:12;8.43;;;5.80;;
34565;SDS011;20803;42.676;26.348;2023-08-20T14:09:38;6.80;;;6.20;;
34565;SDS011;20803;42.676;26.348;2023-08-20T14:12:05;8.60;;;5.73;;
34565;SDS011;20803;42.676;26.348;2023-08-20T14:14:30;6.40;;;5.80;;
34565;SDS011;20803;42.676;26.348;2023-08-20T14:16:56;6.57;;;5.83;;
34565;SDS011;20803;42.676;26.348;2023-08-20T14:19:22;8.73;;;5.63;;
34565;SDS011;20803;42.676;26.348;2023-08-20T14:21:47;7.83;;;5.27;;
34565;SDS011;20803;42.676;26.348;2023-08-20T14:24:13;9.93;;;5.20;;
34565;SDS011;20803;42.676;26.348;2023-08-20T14:26:38;5.60;;;5.10;;
34565;SDS011;20803;42.676;26.348;2023-08-20T14:29:05;6.47;;;5.57;;
34565;SDS011;20803;42.676;26.348;2023-08-20T14:31:30;7.80;;;5.00;;
34565;SDS011;20803;42.676;26.348;2023-08-20T14:33:56;6.00;;;5.37;;
34565;SDS011;20803;42.676;26.348;2023-08-20T14:36:22;6.53;;;5.20;;
34565;SDS011;20803;42.676;26.348;2023-08-20T14:38:47;8.33;;;5.10;;
34565;SDS011;20803;42.676;26.348;2023-08-20T14:41:13;5.03;;;4.63;;
34565;SDS011;20803;42.676;26.348;2023-08-20T14:43:38;5.93;;;4.80;;
34565;SDS011;20803;42.676;26.348;2023-08-20T14:46:03;6.77;;;4.60;;